Time;durP1;ratioP1;P1;durP2;ratioP2;P2;SDS_P1;SDS_P2;PMS_P1;PMS_P2;Temp;Humidity;BMP_temperature;BMP_pressure;BME280_temperature;BME280_humidity;BME280_pressure;Samples;Min_cycle;Max_cycle;Signal;HPM_P1;HPM_P2
2023/09/18 00:01:12;;;;;;;8.67;7.87;;;27.60;61.00;;;;;;5026751;28;20460;-77
2023/09/18 00:03:41;;;;;;;9.90;8.70;;;27.70;61.00;;;;;;5033611;28;20414;-78
2023/09/18 00:06:08;;;;;;;10.33;8.57;;;27.70;60.80;;;;;;5031966;28;20435;-78
2023/09/18 00:08:36;;;;;;;10.03;9.07;;;27.70;60.70;;;;;;5031542;28;20410;-78
2023/09/18 00:11:07;;;;;;;10.37;9.30;;;27.70;60.50;;;;;;5031345;28;20459;-78
2023/09/18 00:13:34;;;;;;;13.37;9.20;;;27.60;60.20;;;;;;5031601;28;20406;-79
2023/09/18 00:16:03;;;;;;;10.47;9.37;;;27.60;60.30;;;;;;5031271;28;20436;-78
2023/09/18 00:18:32;;;;;;;9.80;8.90;;;27.60;60.10;;;;;;5029515;28;20422;-78
2023/09/18 00:21:00;;;;;;;9.23;8.43;;;27.60;59.90;;;;;;5031401;28;20550;-77
2023/09/18 00:23:28;;;;;;;10.43;9.03;;;27.60;59.70;;;;;;5032722;28;20466;-78
2023/09/18 00:25:56;;;;;;;10.00;9.10;;;27.60;59.80;;;;;;5033135;28;20519;-78
2023/09/18 00:28:25;;;;;;;9.90;8.90;;;27.60;59.70;;;;;;5033032;28;20435;-78
2023/09/18 00:30:53;;;;;;;10.80;9.70;;;27.60;59.50;;;;;;5033210;28;20516;-78
2023/09/18 00:33:21;;;;;;;9.80;8.80;;;27.60;59.50;;;;;;5032086;28;20445;-78
2023/09/18 00:35:49;;;;;;;9.10;8.30;;;27.60;59.40;;;;;;5029745;28;20439;-78
2023/09/18 00:38:17;;;;;;;9.37;8.47;;;27.60;59.30;;;;;;5026990;28;20466;-77
2023/09/18 00:40:45;;;;;;;9.67;8.67;;;27.60;59.20;;;;;;5030828;28;20481;-78
2023/09/18 00:43:13;;;;;;;9.93;8.93;;;27.50;59.10;;;;;;5030971;28;20955;-78
2023/09/18 00:45:43;;;;;;;8.90;8.10;;;27.60;59.00;;;;;;5030662;28;20439;-78
2023/09/18 00:48:11;;;;;;;9.50;8.63;;;27.60;59.00;;;;;;5028600;28;20451;-78
2023/09/18 00:50:39;;;;;;;9.80;8.80;;;27.60;58.80;;;;;;5022768;28;20467;-78
2023/09/18 00:53:08;;;;;;;9.00;8.20;;;27.50;58.60;;;;;;5030884;28;20410;-78
2023/09/18 00:55:36;;;;;;;9.03;8.23;;;27.50;58.70;;;;;;5033384;28;20433;-78
2023/09/18 00:58:05;;;;;;;9.20;8.30;;;27.50;58.60;;;;;;5030414;28;20410;-78
2023/09/18 01:00:33;;;;;;;9.10;8.20;;;27.50;58.60;;;;;;5030415;28;20502;-77
2023/09/18 01:03:03;;;;;;;8.67;7.87;;;27.50;58.60;;;;;;5030847;28;20530;-76
2023/09/18 01:05:32;;;;;;;8.70;7.90;;;27.50;58.30;;;;;;5030907;28;20425;-79
2023/09/18 01:08:00;;;;;;;9.40;8.40;;;27.50;58.50;;;;;;5030305;28;20421;-78
2023/09/18 01:10:30;;;;;;;9.43;8.57;;;27.50;57.90;;;;;;5029672;28;20218;-78
2023/09/18 01:13:02;;;;;;;9.33;8.40;;;27.50;58.30;;;;;;5033795;28;20509;-79
2023/09/18 01:15:33;;;;;;;8.93;8.13;;;27.40;58.40;;;;;;5033061;28;20500;-78
2023/09/18 01:18:03;;;;;;;8.80;8.00;;;27.40;58.10;;;;;;5033109;28;20508;-78
2023/09/18 01:20:31;;;;;;;8.53;7.70;;;27.50;58.80;;;;;;5032950;28;20471;-78
2023/09/18 01:23:01;;;;;;;8.90;8.10;;;27.40;58.10;;;;;;5032995;28;20457;-78
2023/09/18 01:25:32;;;;;;;8.73;8.00;;;27.50;57.90;;;;;;5032501;28;20423;-78
2023/09/18 01:28:00;;;;;;;13.17;8.10;;;27.40;57.80;;;;;;5032369;28;20470;-78
2023/09/18 01:30:28;;;;;;;8.90;8.10;;;27.40;57.80;;;;;;5033533;28;20441;-78
2023/09/18 01:32:57;;;;;;;8.53;7.73;;;27.40;57.70;;;;;;5035789;28;20554;-79
2023/09/18 01:35:29;;;;;;;9.00;8.10;;;27.40;57.70;;;;;;5037018;28;20453;-78
2023/09/18 01:37:57;;;;;;;8.50;7.70;;;27.40;57.60;;;;;;5039752;28;20493;-79
2023/09/18 01:40:27;;;;;;;8.00;7.30;;;27.40;57.60;;;;;;5040179;28;20453;-79
2023/09/18 01:42:55;;;;;;;7.73;7.03;;;27.40;57.40;;;;;;5039701;28;20459;-78
2023/09/18 01:45:23;;;;;;;7.90;7.27;;;27.40;57.50;;;;;;5030812;28;20461;-79
2023/09/18 01:47:51;;;;;;;8.63;7.73;;;27.40;57.40;;;;;;5047748;28;20497;-80
2023/09/18 01:50:19;;;;;;;8.67;7.87;;;27.40;57.30;;;;;;5043986;28;20441;-80
2023/09/18 01:52:47;;;;;;;9.80;7.57;;;27.40;57.20;;;;;;5042797;28;20439;-80
2023/09/18 01:55:18;;;;;;;8.80;7.90;;;27.40;57.20;;;;;;5042500;28;20418;-79
2023/09/18 01:57:48;;;;;;;7.80;7.07;;;27.40;57.20;;;;;;5040840;28;20452;-79
2023/09/18 02:00:18;;;;;;;8.60;7.77;;;27.40;57.10;;;;;;5040792;28;20458;-80
2023/09/18 02:02:46;;;;;;;7.70;7.00;;;27.30;57.10;;;;;;5038965;28;20530;-80
2023/09/18 02:05:33;;;;;;;8.30;7.50;;;27.30;57.20;;;;;;5041676;28;20442;-80
2023/09/18 02:08:02;;;;;;;7.93;7.23;;;27.30;57.10;;;;;;5049516;28;20456;-80
2023/09/18 02:10:31;;;;;;;8.40;7.47;;;27.30;56.80;;;;;;5050050;28;20441;-81
2023/09/18 02:13:01;;;;;;;8.10;7.23;;;27.30;56.90;;;;;;5048805;28;20451;-82
2023/09/18 02:15:32;;;;;;;7.83;7.13;;;27.30;56.90;;;;;;5049293;28;20445;-81
2023/09/18 02:18:00;;;;;;;7.40;6.70;;;27.30;56.90;;;;;;5048287;28;20423;-81
2023/09/18 02:20:28;;;;;;;7.03;6.43;;;27.30;56.70;;;;;;5052016;28;20442;-81
2023/09/18 02:22:56;;;;;;;7.07;6.47;;;27.30;56.80;;;;;;5049646;28;20433;-81
2023/09/18 02:25:25;;;;;;;7.87;7.07;;;27.30;56.80;;;;;;5049363;28;20431;-81
2023/09/18 02:27:55;;;;;;;7.93;7.07;;;27.30;56.70;;;;;;5045448;28;20426;-80
2023/09/18 02:30:25;;;;;;;6.97;6.43;;;27.30;56.60;;;;;;5040181;28;20454;-79
2023/09/18 02:32:53;;;;;;;6.70;6.13;;;27.30;56.60;;;;;;5040868;28;20414;-80
2023/09/18 02:35:21;;;;;;;6.90;6.30;;;27.20;56.40;;;;;;5043044;28;20422;-80
2023/09/18 02:37:49;;;;;;;7.73;6.60;;;27.20;56.50;;;;;;5048530;28;20414;-80
2023/09/18 02:40:18;;;;;;;6.80;6.30;;;27.20;57.00;;;;;;5048645;28;20446;-80
2023/09/18 02:42:50;;;;;;;6.63;6.07;;;27.20;56.40;;;;;;5048524;28;20414;-80
2023/09/18 02:45:18;;;;;;;6.90;6.30;;;27.20;56.40;;;;;;5048265;28;20418;-80
2023/09/18 02:47:48;;;;;;;6.67;6.17;;;27.20;56.40;;;;;;5041501;28;20426;-79
2023/09/18 02:50:19;;;;;;;6.67;6.07;;;27.20;56.00;;;;;;5048866;28;20463;-80
2023/09/18 02:52:49;;;;;;;6.53;5.93;;;27.20;56.30;;;;;;5046147;28;20422;-80
2023/09/18 02:55:18;;;;;;;6.60;6.00;;;27.20;56.20;;;;;;5047605;28;20506;-80
2023/09/18 02:57:45;;;;;;;7.03;6.23;;;27.10;56.10;;;;;;5048430;28;20417;-80
2023/09/18 03:00:14;;;;;;;7.70;6.90;;;27.10;56.20;;;;;;5046148;28;20517;-80
2023/09/18 03:02:42;;;;;;;6.87;6.30;;;27.10;56.10;;;;;;5048797;28;20430;-79
2023/09/18 03:05:12;;;;;;;6.70;6.10;;;27.10;56.00;;;;;;5044383;28;20427;-80
2023/09/18 03:07:40;;;;;;;7.03;6.33;;;27.10;55.90;;;;;;5048886;28;20419;-80
2023/09/18 03:10:13;;;;;;;6.67;6.07;;;27.10;55.90;;;;;;5046401;28;21018;-81
2023/09/18 03:12:42;;;;;;;6.40;5.90;;;27.10;55.80;;;;;;5042445;28;20437;-80
2023/09/18 03:15:13;;;;;;;6.17;5.73;;;27.10;55.90;;;;;;5048554;28;20414;-81
2023/09/18 03:17:41;;;;;;;6.53;6.03;;;27.10;56.00;;;;;;5048351;28;20437;-80
2023/09/18 03:20:17;;;;;;;6.90;6.20;;;27.10;55.70;;;;;;5048633;28;20442;-80
2023/09/18 03:22:45;;;;;;;7.40;6.70;;;27.00;55.90;;;;;;5047391;28;20434;-80
2023/09/18 03:25:16;;;;;;;6.80;6.30;;;27.10;55.90;;;;;;5044328;28;20444;-79
2023/09/18 03:27:44;;;;;;;5.97;5.53;;;27.00;55.60;;;;;;5044038;28;20436;-79
2023/09/18 03:30:15;;;;;;;5.80;5.40;;;27.00;55.50;;;;;;5046532;28;20438;-79
2023/09/18 03:32:43;;;;;;;6.47;5.97;;;27.00;55.70;;;;;;5046131;28;20424;-79
2023/09/18 03:35:17;;;;;;;6.40;5.90;;;27.00;55.80;;;;;;5045163;28;20410;-80
2023/09/18 03:37:45;;;;;;;6.37;5.87;;;27.00;55.50;;;;;;5047036;28;20417;-80
2023/09/18 03:40:15;;;;;;;6.30;5.80;;;27.00;55.80;;;;;;5047599;28;20521;-80
2023/09/18 03:42:42;;;;;;;6.83;6.13;;;27.00;55.60;;;;;;5046302;28;20498;-80
2023/09/18 03:45:11;;;;;;;6.13;5.67;;;27.00;55.50;;;;;;5046792;28;20455;-80
2023/09/18 03:47:39;;;;;;;6.07;5.53;;;27.00;55.50;;;;;;5047388;28;20451;-80
2023/09/18 03:50:09;;;;;;;6.20;5.70;;;27.00;55.40;;;;;;5047124;28;20446;-81
2023/09/18 03:52:39;;;;;;;6.73;6.13;;;27.00;55.50;;;;;;5040062;28;20434;-81
2023/09/18 03:55:10;;;;;;;5.70;5.30;;;27.00;55.50;;;;;;5043215;28;20974;-80
2023/09/18 03:57:40;;;;;;;6.23;5.70;;;27.00;55.20;;;;;;5032481;28;20448;-80
2023/09/18 04:00:09;;;;;;;6.97;6.13;;;27.00;55.60;;;;;;5038327;28;20449;-79
2023/09/18 04:02:37;;;;;;;5.80;5.33;;;27.00;55.40;;;;;;5030804;28;20475;-79
2023/09/18 04:05:07;;;;;;;6.93;5.57;;;26.90;55.40;;;;;;5039093;28;20425;-80
2023/09/18 04:07:35;;;;;;;6.40;5.90;;;26.90;55.40;;;;;;5044247;28;20439;-80
2023/09/18 04:10:06;;;;;;;5.80;5.40;;;26.90;55.40;;;;;;5039855;28;20442;-80
2023/09/18 04:12:36;;;;;;;5.87;5.47;;;26.90;55.20;;;;;;5044249;28;20414;-80
2023/09/18 04:15:05;;;;;;;5.73;5.33;;;26.90;55.10;;;;;;5045775;28;20439;-80
2023/09/18 04:17:33;;;;;;;6.40;5.90;;;26.90;55.10;;;;;;5046960;28;20452;-80
2023/09/18 04:20:04;;;;;;;6.10;5.60;;;26.90;55.10;;;;;;5042853;28;20538;-80
2023/09/18 04:22:32;;;;;;;5.27;4.87;;;26.90;55.20;;;;;;5043777;28;20457;-80
2023/09/18 04:25:00;;;;;;;6.13;5.50;;;26.90;55.10;;;;;;5045181;28;20414;-80
2023/09/18 04:27:30;;;;;;;6.00;5.40;;;26.90;55.00;;;;;;5043011;28;20472;-80
2023/09/18 04:30:00;;;;;;;5.53;5.17;;;26.90;55.00;;;;;;5044016;28;20464;-80
2023/09/18 04:32:30;;;;;;;5.93;5.43;;;26.90;55.20;;;;;;5044577;28;20417;-79
2023/09/18 04:34:59;;;;;;;5.73;5.33;;;26.90;55.00;;;;;;5044845;28;20448;-80
2023/09/18 04:37:27;;;;;;;5.70;5.27;;;26.90;54.90;;;;;;5041989;28;20437;-81
2023/09/18 04:39:58;;;;;;;6.27;5.80;;;26.90;55.00;;;;;;5045483;28;20426;-78
2023/09/18 04:42:27;;;;;;;5.70;5.20;;;26.90;55.10;;;;;;5043722;28;20490;-80
2023/09/18 04:44:56;;;;;;;7.03;5.10;;;26.90;55.00;;;;;;5046160;28;20444;-80
2023/09/18 04:47:24;;;;;;;5.60;5.20;;;26.90;55.00;;;;;;5047996;28;20433;-80
2023/09/18 04:49:52;;;;;;;5.83;5.33;;;26.80;54.80;;;;;;5047913;28;20493;-80
2023/09/18 04:52:20;;;;;;;6.00;5.40;;;26.80;55.00;;;;;;5047010;28;20448;-80
2023/09/18 04:54:49;;;;;;;5.00;4.70;;;26.80;55.30;;;;;;5048316;28;20443;-78
2023/09/18 04:57:17;;;;;;;5.80;5.33;;;26.80;55.00;;;;;;5047644;28;20439;-81
2023/09/18 04:59:46;;;;;;;5.50;5.10;;;26.80;54.70;;;;;;5050259;28;20458;-82
2023/09/18 05:02:34;;;;;;;5.77;5.30;;;26.80;54.70;;;;;;5044604;28;20490;-80
2023/09/18 05:05:04;;;;;;;5.97;5.47;;;26.80;54.60;;;;;;5047891;28;20459;-80
2023/09/18 05:07:32;;;;;;;5.63;5.20;;;26.80;54.80;;;;;;5047093;28;20429;-81
2023/09/18 05:10:00;;;;;;;6.17;5.67;;;26.80;54.70;;;;;;5045317;28;20445;-81
2023/09/18 05:12:28;;;;;;;6.70;6.10;;;26.80;54.70;;;;;;5045361;28;20414;-81
2023/09/18 05:14:58;;;;;;;5.63;5.23;;;26.80;54.70;;;;;;5041668;28;20418;-78
2023/09/18 05:17:43;;;;;;;5.33;4.83;;;26.80;54.70;;;;;;5035811;28;20439;-79
2023/09/18 05:20:15;;;;;;;5.03;4.73;;;26.80;54.70;;;;;;5037503;28;20471;-79
2023/09/18 05:22:43;;;;;;;6.00;5.40;;;26.80;54.60;;;;;;5034682;28;20447;-81
2023/09/18 05:25:12;;;;;;;5.60;5.17;;;26.70;54.60;;;;;;5040123;28;20454;-79
2023/09/18 05:27:44;;;;;;;5.57;5.17;;;26.70;54.60;;;;;;5035906;28;20447;-79
2023/09/18 05:30:14;;;;;;;5.83;5.33;;;26.80;54.80;;;;;;5037482;28;20441;-79
2023/09/18 05:32:45;;;;;;;5.80;5.37;;;26.80;54.70;;;;;;5039966;28;20398;-80
2023/09/18 05:35:13;;;;;;;5.73;5.33;;;26.80;54.60;;;;;;5042992;28;20443;-80
2023/09/18 05:37:41;;;;;;;5.53;5.10;;;26.70;54.50;;;;;;5044457;28;20491;-79
2023/09/18 05:40:11;;;;;;;5.00;4.70;;;26.80;54.60;;;;;;5045699;28;20444;-81
2023/09/18 05:42:39;;;;;;;5.17;4.87;;;26.80;54.60;;;;;;5052776;28;20478;-80
2023/09/18 05:45:08;;;;;;;5.90;4.90;;;26.70;54.40;;;;;;5044883;28;20501;-80
2023/09/18 05:47:36;;;;;;;5.90;5.40;;;26.70;54.50;;;;;;5048362;28;20930;-80
2023/09/18 05:50:06;;;;;;;5.27;4.90;;;26.80;54.50;;;;;;5049166;28;20808;-82
2023/09/18 05:52:34;;;;;;;5.10;4.70;;;26.80;54.40;;;;;;5045454;28;20411;-80
2023/09/18 05:55:03;;;;;;;5.80;5.40;;;26.80;54.50;;;;;;5046023;28;20410;-80
2023/09/18 05:57:32;;;;;;;5.70;5.30;;;26.80;54.20;;;;;;5048703;28;20414;-83
2023/09/18 06:00:01;;;;;;;5.50;5.07;;;26.80;54.40;;;;;;5050396;28;20457;-81
2023/09/18 06:02:31;;;;;;;5.13;4.63;;;26.90;54.30;;;;;;5051755;28;20470;-80
2023/09/18 06:05:00;;;;;;;5.80;5.30;;;26.80;54.20;;;;;;5050086;28;20445;-80
2023/09/18 06:07:30;;;;;;;5.43;4.93;;;26.80;54.80;;;;;;5050946;28;20406;-82
2023/09/18 06:10:08;;;;;;;5.50;5.10;;;26.80;54.20;;;;;;5050221;28;20422;-80
2023/09/18 06:12:38;;;;;;;5.63;5.23;;;26.80;54.20;;;;;;5048474;28;20435;-80
2023/09/18 06:15:09;;;;;;;5.97;5.47;;;26.80;54.30;;;;;;5049286;28;20445;-83
2023/09/18 06:17:39;;;;;;;5.70;5.20;;;26.80;54.20;;;;;;5048772;28;20414;-81
2023/09/18 06:20:10;;;;;;;6.10;5.60;;;26.80;54.30;;;;;;5050424;28;20422;-84
2023/09/18 06:22:40;;;;;;;6.03;5.53;;;26.90;54.30;;;;;;5057011;28;20421;-80
2023/09/18 06:25:09;;;;;;;5.93;5.43;;;26.80;54.40;;;;;;5056632;28;20462;-83
2023/09/18 06:27:38;;;;;;;5.63;5.13;;;26.90;54.40;;;;;;5053064;28;20433;-80
2023/09/18 06:30:07;;;;;;;5.50;5.10;;;26.80;54.10;;;;;;5050659;28;20438;-81
2023/09/18 06:32:36;;;;;;;5.90;5.40;;;26.80;54.20;;;;;;5047728;28;20451;-82
2023/09/18 06:35:05;;;;;;;6.60;5.20;;;26.80;54.20;;;;;;5044679;28;20399;-82
2023/09/18 06:37:35;;;;;;;6.67;6.17;;;26.80;54.20;;;;;;5050050;28;20426;-82
2023/09/18 06:40:05;;;;;;;6.07;5.57;;;26.80;54.10;;;;;;5049259;28;20434;-81
2023/09/18 06:42:33;;;;;;;6.37;5.90;;;26.90;54.20;;;;;;5049694;28;20449;-80
2023/09/18 06:45:06;;;;;;;5.70;5.20;;;26.80;54.10;;;;;;5035058;28;20451;-78
2023/09/18 06:47:34;;;;;;;6.50;6.00;;;26.90;54.80;;;;;;5033298;28;20447;-78
2023/09/18 06:50:12;;;;;;;6.07;5.57;;;26.90;54.30;;;;;;5028577;28;20457;-78
2023/09/18 06:52:40;;;;;;;5.67;5.17;;;26.80;54.20;;;;;;5041105;28;20497;-79
2023/09/18 06:55:11;;;;;;;6.03;5.53;;;26.90;54.40;;;;;;5034180;28;20436;-78
2023/09/18 06:57:40;;;;;;;5.10;4.70;;;26.80;54.20;;;;;;5043821;28;20473;-78
2023/09/18 07:00:10;;;;;;;5.63;5.17;;;26.80;54.40;;;;;;5038893;28;20479;-78
2023/09/18 07:02:38;;;;;;;6.27;5.70;;;26.80;54.40;;;;;;5032821;28;20458;-79
2023/09/18 07:05:07;;;;;;;5.43;5.03;;;26.90;54.60;;;;;;5038197;28;20426;-80
2023/09/18 07:07:35;;;;;;;5.40;5.10;;;26.80;54.60;;;;;;5047482;28;20485;-80
2023/09/18 07:10:03;;;;;;;5.50;5.00;;;26.90;54.70;;;;;;5052522;28;20483;-81
2023/09/18 07:12:38;;;;;;;6.30;5.20;;;26.90;54.70;;;;;;5052442;28;20424;-81
2023/09/18 07:15:07;;;;;;;6.03;5.17;;;26.90;54.60;;;;;;5055070;28;20477;-80
2023/09/18 07:17:38;;;;;;;6.87;5.30;;;26.90;54.60;;;;;;5047857;28;20429;-82
2023/09/18 07:20:13;;;;;;;5.63;5.23;;;26.90;54.70;;;;;;5045706;28;20453;-80
2023/09/18 07:22:46;;;;;;;5.70;5.20;;;26.90;54.90;;;;;;5044929;28;20441;-81
2023/09/18 07:25:14;;;;;;;5.57;5.07;;;26.90;55.00;;;;;;5052185;28;20406;-81
2023/09/18 07:27:44;;;;;;;6.10;5.50;;;26.90;55.20;;;;;;5045748;28;20406;-81
2023/09/18 07:30:15;;;;;;;5.87;5.37;;;27.00;55.20;;;;;;5047449;28;20438;-82
2023/09/18 07:32:44;;;;;;;7.67;5.27;;;27.00;55.20;;;;;;5046619;28;20437;-79
2023/09/18 07:35:14;;;;;;;6.00;5.40;;;27.00;55.20;;;;;;5046679;28;20419;-79
2023/09/18 07:37:51;;;;;;;5.30;4.90;;;27.00;55.40;;;;;;5044160;28;20458;-81
2023/09/18 07:40:19;;;;;;;5.70;5.20;;;27.00;55.60;;;;;;5045021;28;20438;-80
2023/09/18 07:42:49;;;;;;;7.20;5.27;;;27.00;55.40;;;;;;5046345;28;20995;-80
2023/09/18 07:45:20;;;;;;;5.73;5.33;;;27.00;55.50;;;;;;5046478;28;20478;-83
2023/09/18 07:47:48;;;;;;;7.37;4.97;;;27.10;55.60;;;;;;5047935;28;20539;-83
2023/09/18 07:50:17;;;;;;;6.40;5.20;;;27.10;55.70;;;;;;5043847;28;20434;-81
2023/09/18 07:52:46;;;;;;;5.23;4.83;;;27.10;55.70;;;;;;5049531;28;20407;-81
2023/09/18 07:55:15;;;;;;;5.77;5.20;;;27.10;55.80;;;;;;5052131;28;20426;-82
2023/09/18 07:57:45;;;;;;;4.97;4.57;;;27.10;55.80;;;;;;5050672;28;20457;-81
2023/09/18 08:00:15;;;;;;;5.07;4.73;;;27.10;56.40;;;;;;5049086;28;20474;-82
2023/09/18 08:02:44;;;;;;;5.70;5.00;;;27.20;56.00;;;;;;5046610;28;20453;-80
2023/09/18 08:05:13;;;;;;;5.80;4.87;;;27.20;56.00;;;;;;5047177;28;20448;-82
2023/09/18 08:07:42;;;;;;;5.17;4.73;;;27.20;55.90;;;;;;5048191;28;20462;-80
2023/09/18 08:10:13;;;;;;;6.10;5.33;;;27.20;56.10;;;;;;5046674;28;20442;-81
2023/09/18 08:12:42;;;;;;;5.23;4.67;;;27.20;56.00;;;;;;5047258;28;20418;-81
2023/09/18 08:15:11;;;;;;;5.10;4.70;;;27.20;56.30;;;;;;5044836;28;20434;-82
2023/09/18 08:17:42;;;;;;;5.03;4.73;;;27.20;56.30;;;;;;5041156;28;20447;-78
2023/09/18 08:20:13;;;;;;;5.60;5.00;;;27.20;56.20;;;;;;5038611;28;20463;-78
2023/09/18 08:22:42;;;;;;;5.53;5.03;;;27.20;56.30;;;;;;5037661;28;20817;-80
2023/09/18 08:25:14;;;;;;;7.63;5.20;;;27.20;57.00;;;;;;5033738;28;20448;-79
2023/09/18 08:27:43;;;;;;;6.30;4.90;;;27.20;56.60;;;;;;5033219;28;20872;-79
2023/09/18 08:30:13;;;;;;;5.40;4.90;;;27.30;56.70;;;;;;5034359;28;20449;-79
2023/09/18 08:32:48;;;;;;;5.40;4.90;;;27.20;56.50;;;;;;5031866;28;20425;-80
2023/09/18 08:35:39;;;;;;;9.43;5.07;;;27.20;57.40;;;;;;5033191;28;20451;-79
2023/09/18 08:38:13;;;;;;;5.47;4.97;;;27.30;57.50;;;;;;5038557;28;20518;-80
2023/09/18 08:40:44;;;;;;;5.20;4.70;;;27.30;57.20;;;;;;5043920;28;20467;-79
2023/09/18 08:43:21;;;;;;;7.83;5.10;;;27.30;57.40;;;;;;5040616;28;20479;-79
2023/09/18 08:45:55;;;;;;;7.67;5.10;;;27.30;57.50;;;;;;5036923;28;20912;-79
2023/09/18 08:48:25;;;;;;;5.50;5.10;;;27.30;57.70;;;;;;5038830;28;20443;-78
2023/09/18 08:50:53;;;;;;;6.17;4.80;;;27.30;57.80;;;;;;5043632;28;20475;-79
2023/09/18 08:53:21;;;;;;;4.90;4.50;;;27.30;57.80;;;;;;5045077;28;20418;-82
2023/09/18 08:55:49;;;;;;;4.97;4.57;;;27.30;58.00;;;;;;5037532;28;20418;-79
2023/09/18 08:58:22;;;;;;;6.47;5.03;;;27.30;57.80;;;;;;5035598;28;20450;-82
2023/09/18 09:00:50;;;;;;;8.03;4.90;;;27.30;57.90;;;;;;5040849;28;20445;-80
2023/09/18 09:03:19;;;;;;;8.77;5.10;;;27.30;58.00;;;;;;5043764;28;20475;-78
2023/09/18 09:05:48;;;;;;;4.93;4.53;;;27.40;57.90;;;;;;5042669;28;20418;-79
2023/09/18 09:08:16;;;;;;;8.93;5.10;;;27.40;57.80;;;;;;5042365;28;20562;-79
2023/09/18 09:10:45;;;;;;;5.73;4.60;;;27.40;58.00;;;;;;5041814;28;20445;-81
2023/09/18 09:13:13;;;;;;;5.97;4.63;;;27.40;58.10;;;;;;5028125;28;20448;-79
2023/09/18 09:15:58;;;;;;;9.40;4.53;;;27.50;58.30;;;;;;5033856;28;20414;-78
2023/09/18 09:18:27;;;;;;;5.50;4.60;;;27.60;58.30;;;;;;5030364;28;20498;-79
2023/09/18 09:21:00;;;;;;;4.60;4.20;;;27.60;57.80;;;;;;5029212;28;20437;-78
2023/09/18 09:23:29;;;;;;;8.87;5.00;;;27.70;57.90;;;;;;5031588;28;20480;-80
2023/09/18 09:26:13;;;;;;;7.17;4.90;;;27.70;58.10;;;;;;5032563;28;20466;-78
2023/09/18 09:28:43;;;;;;;10.80;4.63;;;27.70;58.30;;;;;;5033204;28;20420;-77
2023/09/18 09:31:11;;;;;;;4.80;4.40;;;27.70;58.40;;;;;;5040900;28;20503;-78
2023/09/18 09:33:40;;;;;;;4.57;4.20;;;27.70;59.00;;;;;;5040927;28;20425;-79
2023/09/18 09:36:15;;;;;;;6.50;4.60;;;27.70;58.30;;;;;;5040786;28;20748;-79
2023/09/18 09:41:38;;;;;;;10.90;4.60;;;27.70;58.60;;;;;;5040183;28;20451;-77
2023/09/18 09:44:09;;;;;;;6.20;4.70;;;27.70;58.70;;;;;;5037126;28;20474;-79
2023/09/18 09:46:37;;;;;;;9.23;4.80;;;27.70;58.80;;;;;;5036574;28;20486;-79
2023/09/18 09:49:05;;;;;;;5.10;4.10;;;27.70;58.80;;;;;;5035854;28;20520;-80
2023/09/18 09:51:38;;;;;;;5.40;4.77;;;27.70;58.80;;;;;;5038052;28;20477;-80
2023/09/18 09:54:07;;;;;;;5.60;4.50;;;27.80;58.90;;;;;;5038580;28;20440;-81
2023/09/18 09:56:48;;;;;;;15.57;4.90;;;27.90;58.80;;;;;;5038296;28;20448;-81
2023/09/18 09:59:33;;;;;;;8.90;4.60;;;27.90;58.70;;;;;;5031823;28;20426;-80
2023/09/18 10:02:12;;;;;;;5.90;4.63;;;27.90;58.60;;;;;;5038680;28;20445;-80
2023/09/18 10:04:48;;;;;;;6.60;4.70;;;28.00;58.90;;;;;;5034217;28;20494;-81
2023/09/18 10:07:21;;;;;;;6.77;4.33;;;28.00;58.80;;;;;;5032936;28;20479;-84
2023/09/18 10:10:05;;;;;;;5.47;4.27;;;28.10;58.80;;;;;;5043550;28;20452;-83
2023/09/18 10:13:31;;;;;;;6.47;4.60;;;28.00;58.80;;;;;;5042674;28;20422;-83
2023/09/18 10:16:04;;;;;;;15.57;5.23;;;28.00;58.80;;;;;;5040641;28;20447;-82
2023/09/18 10:18:40;;;;;;;6.47;4.10;;;28.10;58.70;;;;;;5040991;28;20468;-83
2023/09/18 10:21:11;;;;;;;5.97;4.20;;;28.10;58.90;;;;;;5039719;28;20554;-81
2023/09/18 10:23:58;;;;;;;5.17;4.40;;;28.10;59.00;;;;;;5039838;28;20492;-83
2023/09/18 10:26:29;;;;;;;5.03;4.30;;;28.10;58.90;;;;;;5039331;28;20998;-83
2023/09/18 10:28:59;;;;;;;7.83;4.40;;;28.10;59.10;;;;;;5040862;28;20947;-80
2023/09/18 10:31:30;;;;;;;4.67;3.90;;;28.10;59.00;;;;;;5040193;28;20438;-83
2023/09/18 10:34:00;;;;;;;6.23;4.43;;;28.20;59.00;;;;;;5041878;28;20476;-82
2023/09/18 10:36:28;;;;;;;8.57;4.20;;;28.20;59.00;;;;;;5039752;28;20454;-78
2023/09/18 10:39:08;;;;;;;7.63;4.40;;;28.10;59.00;;;;;;5034202;28;20480;-81
2023/09/18 10:41:39;;;;;;;10.53;4.27;;;28.20;59.20;;;;;;5032584;28;20422;-81
2023/09/18 10:44:10;;;;;;;5.53;4.17;;;28.20;59.00;;;;;;5033233;28;20565;-81
2023/09/18 10:46:38;;;;;;;6.20;3.80;;;28.30;59.00;;;;;;5033257;28;20442;-79
2023/09/18 10:49:08;;;;;;;7.27;3.93;;;28.30;59.00;;;;;;5036914;28;20448;-81
2023/09/18 10:51:41;;;;;;;4.30;4.00;;;28.40;58.80;;;;;;5037396;28;20526;-83
2023/09/18 10:54:11;;;;;;;9.27;4.53;;;28.50;59.00;;;;;;5038960;28;20430;-84
2023/09/18 10:56:46;;;;;;;6.47;3.93;;;28.60;58.80;;;;;;5036495;28;20468;-83
2023/09/18 10:59:20;;;;;;;7.13;4.50;;;28.60;58.50;;;;;;5043866;28;20522;-87
2023/09/18 11:01:52;;;;;;;12.17;4.27;;;28.60;58.60;;;;;;5054763;22;20475;-76
2023/09/18 11:04:20;;;;;;;9.80;4.30;;;28.60;58.40;;;;;;5031329;28;20501;-78
2023/09/18 11:07:05;;;;;;;5.03;4.47;;;28.60;58.50;;;;;;5033358;28;20452;-76
2023/09/18 11:09:43;;;;;;;9.10;4.00;;;28.60;58.60;;;;;;5026020;28;20456;-76
2023/09/18 11:12:11;;;;;;;9.80;5.17;;;28.60;58.50;;;;;;5011200;28;20494;-77
2023/09/18 11:14:43;;;;;;;4.43;3.70;;;28.60;58.50;;;;;;5008255;28;20488;-77
2023/09/18 11:17:33;;;;;;;5.43;3.70;;;28.60;58.50;;;;;;5009983;28;20527;-78
2023/09/18 11:20:18;;;;;;;5.20;3.97;;;28.60;58.60;;;;;;5009768;28;20805;-78
2023/09/18 11:22:49;;;;;;;6.17;3.93;;;28.60;59.20;;;;;;5011860;28;20498;-76
2023/09/18 11:25:41;;;;;;;7.97;4.00;;;28.60;58.70;;;;;;5012322;28;20479;-78
2023/09/18 11:28:13;;;;;;;6.87;3.60;;;28.70;58.70;;;;;;5012159;28;20449;-78
2023/09/18 11:30:50;;;;;;;4.30;3.70;;;28.70;58.50;;;;;;5009438;28;20476;-79
2023/09/18 11:33:30;;;;;;;4.90;3.80;;;28.80;58.50;;;;;;5011897;28;20550;-78
2023/09/18 11:36:05;;;;;;;4.20;3.80;;;28.80;58.30;;;;;;5012145;28;20512;-78
2023/09/18 11:38:35;;;;;;;3.67;3.37;;;28.90;58.50;;;;;;5014447;28;20467;-78
2023/09/18 11:41:25;;;;;;;8.37;3.13;;;28.90;58.20;;;;;;5012842;28;20439;-78
2023/09/18 11:43:54;;;;;;;4.30;3.57;;;28.90;58.30;;;;;;5012229;28;20523;-76
2023/09/18 11:46:25;;;;;;;5.87;3.60;;;29.00;58.20;;;;;;5002305;28;20551;-79
2023/09/18 11:48:54;;;;;;;3.60;3.30;;;29.00;58.20;;;;;;5012402;28;20457;-76
2023/09/18 11:51:24;;;;;;;4.97;3.90;;;29.10;58.10;;;;;;5003827;28;20495;-76
2023/09/18 11:53:56;;;;;;;4.77;3.20;;;29.10;57.80;;;;;;5010595;28;20804;-78
2023/09/18 11:56:27;;;;;;;4.10;3.20;;;29.20;57.80;;;;;;5004647;28;20444;-77
2023/09/18 11:58:56;;;;;;;6.17;3.40;;;29.30;57.90;;;;;;5011169;28;20433;-79
2023/09/18 12:01:26;;;;;;;3.77;3.20;;;29.40;57.70;;;;;;5011446;28;20501;-78
2023/09/18 12:03:55;;;;;;;4.33;3.13;;;29.60;57.70;;;;;;5008462;28;20508;-78
2023/09/18 12:06:24;;;;;;;3.20;3.00;;;30.00;57.70;;;;;;5007666;28;20464;-78
2023/09/18 12:08:52;;;;;;;2.83;2.63;;;30.30;57.10;;;;;;5012073;28;20608;-79
2023/09/18 12:11:20;;;;;;;3.50;3.00;;;30.70;56.60;;;;;;5011217;28;20499;-79
2023/09/18 12:13:51;;;;;;;3.13;2.83;;;31.00;56.00;;;;;;5012050;28;20440;-78
2023/09/18 12:16:19;;;;;;;4.00;2.90;;;31.20;55.50;;;;;;5011999;28;20464;-77
2023/09/18 12:18:49;;;;;;;6.30;2.50;;;31.40;54.80;;;;;;5011841;28;20440;-79
2023/09/18 12:21:17;;;;;;;2.70;2.43;;;31.70;54.80;;;;;;5007943;28;20472;-77
2023/09/18 12:23:47;;;;;;;2.57;2.43;;;31.90;54.30;;;;;;5011975;28;20448;-79
2023/09/18 12:26:17;;;;;;;4.83;2.60;;;32.20;54.00;;;;;;5009863;28;20487;-79
2023/09/18 12:28:45;;;;;;;6.03;2.73;;;32.40;53.50;;;;;;5011205;28;20436;-77
2023/09/18 12:31:15;;;;;;;3.70;2.50;;;32.60;53.30;;;;;;5010946;28;20510;-79
2023/09/18 12:33:46;;;;;;;3.03;2.33;;;32.70;52.80;;;;;;5011433;28;20436;-78
2023/09/18 12:36:14;;;;;;;2.50;2.30;;;32.80;52.60;;;;;;5003102;28;20449;-79
2023/09/18 12:38:42;;;;;;;4.13;2.70;;;33.00;52.40;;;;;;5009694;28;20548;-78
2023/09/18 12:41:11;;;;;;;3.03;2.17;;;33.00;52.20;;;;;;5011006;28;20472;-79
2023/09/18 12:43:41;;;;;;;6.50;2.13;;;33.20;52.00;;;;;;5003369;28;20455;-78
2023/09/18 12:46:09;;;;;;;3.70;1.70;;;33.50;51.80;;;;;;5010536;28;20502;-78
2023/09/18 12:48:46;;;;;;;2.93;2.03;;;33.60;51.50;;;;;;5012530;28;20449;-77
2023/09/18 12:51:16;;;;;;;2.17;1.97;;;33.70;51.20;;;;;;5013074;28;20471;-79
2023/09/18 12:53:44;;;;;;;1.93;1.83;;;34.00;50.90;;;;;;5015761;28;20444;-82
2023/09/18 12:56:13;;;;;;;2.50;2.30;;;34.10;50.40;;;;;;5013584;28;20441;-80
2023/09/18 12:58:41;;;;;;;2.77;1.90;;;34.20;50.30;;;;;;5017342;28;20534;-78
2023/09/18 13:01:29;;;;;;;1.80;1.70;;;34.40;50.20;;;;;;5005383;28;20975;-77
2023/09/18 13:04:00;;;;;;;2.23;2.10;;;34.60;49.90;;;;;;5011200;28;20449;-79
2023/09/18 13:06:29;;;;;;;1.87;1.77;;;34.70;49.50;;;;;;5005636;28;20460;-79